createdAt,value
2023-05-03T00:01:00.135Z,100
2023-05-03T00:11:02.628Z,100
2023-05-03T00:21:04.722Z,100
2023-05-03T00:31:06.476Z,100
2023-05-03T00:41:08.235Z,100
2023-05-03T00:51:10.003Z,100
2023-05-03T01:01:11.837Z,100
2023-05-03T01:11:13.570Z,100
2023-05-03T01:21:16.119Z,100
2023-05-03T01:31:17.944Z,100
2023-05-03T01:41:19.856Z,100
2023-05-03T01:51:21.933Z,100
2023-05-03T02:01:23.637Z,100
2023-05-03T02:11:25.712Z,100
2023-05-03T02:21:27.480Z,100
2023-05-03T02:31:29.435Z,100
2023-05-03T02:41:31.156Z,100
2023-05-03T03:01:36.194Z,100
2023-05-03T03:11:37.840Z,100
2023-05-03T03:21:40.109Z,100
2023-05-03T03:31:42.540Z,100
2023-05-03T03:41:45.029Z,100
2023-05-03T03:51:46.859Z,100
2023-05-03T04:11:50.469Z,100
2023-05-03T04:21:52.324Z,100
2023-05-03T04:31:54.665Z,100
2023-05-03T04:41:57.282Z,100
2023-05-03T04:51:59.575Z,100
2023-05-03T05:02:01.618Z,100
2023-05-03T05:12:03.686Z,100
2023-05-03T05:22:06.159Z,100
2023-05-03T05:32:08.674Z,100
2023-05-03T05:42:10.979Z,100
2023-05-03T06:02:15.286Z,100
2023-05-03T06:12:16.929Z,100
2023-05-03T06:22:19.448Z,100
2023-05-03T06:32:22.093Z,100
2023-05-03T06:42:24.117Z,100
2023-05-03T06:52:26.587Z,100
2023-05-03T07:02:29.225Z,100
2023-05-03T07:12:30.848Z,100
2023-05-03T07:22:32.559Z,100
2023-05-03T07:32:34.769Z,100
2023-05-03T07:42:36.436Z,100
2023-05-03T07:52:38.326Z,100
2023-05-03T08:12:42.376Z,100
2023-05-03T08:22:44.399Z,100
2023-05-03T08:42:49.111Z,100
2023-05-03T08:52:50.965Z,100
2023-05-03T09:02:52.748Z,100
2023-05-03T09:12:54.517Z,100
2023-05-03T09:22:57.157Z,100
2023-05-03T09:43:03.159Z,100
2023-05-03T09:53:03.696Z,100
2023-05-03T10:03:06.258Z,100
2023-05-03T10:13:08.979Z,100
2023-05-03T10:23:09.940Z,100
2023-05-03T10:33:11.660Z,100
2023-05-03T10:43:13.564Z,100
2023-05-03T10:53:16.046Z,100
2023-05-03T11:03:17.853Z,100
2023-05-03T11:13:20.376Z,100
2023-05-03T11:33:24.535Z,100
2023-05-03T11:43:27.070Z,100
2023-05-03T11:53:29.122Z,100
2023-05-03T12:03:32.886Z,100
2023-05-03T12:13:35.043Z,100
2023-05-03T12:23:36.044Z,100
2023-05-03T12:33:38.704Z,100
2023-05-03T12:43:43.341Z,99
2023-05-03T12:53:45.820Z,100
2023-05-03T13:03:51.431Z,96
2023-05-03T13:13:46.587Z,97
2023-05-03T13:23:48.989Z,93
2023-05-03T13:33:50.812Z,89
2023-05-03T13:43:53.043Z,90
2023-05-03T13:53:55.645Z,88
2023-05-03T14:03:58.035Z,85
2023-05-03T14:14:00.323Z,82
2023-05-03T14:24:01.797Z,80
2023-05-03T14:34:04.352Z,82
2023-05-03T14:44:06.016Z,79
2023-05-03T14:54:08.151Z,83
2023-05-03T15:04:10.434Z,81
2023-05-03T15:14:12.366Z,80
2023-05-03T15:24:14.292Z,78
2023-05-03T15:34:16.099Z,79
2023-05-03T15:44:17.934Z,79
2023-05-03T15:54:20.235Z,78
2023-05-03T16:04:22.433Z,77
2023-05-03T16:14:24.539Z,77
2023-05-03T16:24:26.534Z,76
2023-05-03T16:34:28.780Z,77
2023-05-03T16:44:31.098Z,76
2023-05-03T16:54:33.284Z,75
2023-05-03T17:04:35.205Z,77
2023-05-03T17:14:37.647Z,77
2023-05-03T17:24:39.925Z,78
2023-05-03T17:34:41.702Z,80
2023-05-03T17:44:43.647Z,83
2023-05-03T17:54:45.498Z,85
2023-05-03T18:04:47.340Z,86
2023-05-03T18:24:51.565Z,91
2023-05-03T18:34:54.124Z,95
2023-05-03T18:44:55.966Z,99
2023-05-03T18:54:58.208Z,100
2023-05-03T19:15:02.528Z,100
2023-05-03T19:25:05.023Z,100
2023-05-03T19:35:06.320Z,100
2023-05-03T19:45:08.192Z,100
2023-05-03T19:55:10.371Z,100
2023-05-03T20:05:12.266Z,100
2023-05-03T20:15:14.863Z,100
2023-05-03T20:25:16.524Z,100
2023-05-03T20:35:18.368Z,100
2023-05-03T20:45:20.661Z,100
2023-05-03T20:55:23.130Z,100
2023-05-03T21:05:25.322Z,100
2023-05-03T21:15:27.796Z,100
2023-05-03T21:15:49.688Z,100
2023-05-03T21:25:36.671Z,100
2023-05-03T21:35:38.388Z,100
2023-05-03T21:45:40.118Z,100
2023-05-03T21:55:42.459Z,100
2023-05-03T22:05:44.655Z,100
2023-05-03T22:15:47.184Z,100
2023-05-03T22:25:49.411Z,100
2023-05-03T22:35:51.748Z,100
2023-05-03T22:45:54.283Z,100
2023-05-03T22:55:56.275Z,100
2023-05-03T23:05:58.377Z,100
2023-05-03T23:16:00.394Z,100
2023-05-03T23:26:02.525Z,100
2023-05-03T23:36:05.060Z,100
2023-05-03T23:46:07.468Z,100
2023-05-03T23:56:09.379Z,100
